Mount Lebanon, Louisiana
Current Conditions -  °F | °C
As of 11:35 AM on Tuesday 21 Oct 2014 (Local Time) from KMNE Reporting Station
Clear Clear  
Wind Chill: 75°   Ceiling: Unl
Heat Index: 75°   Visibility: 10mi
Dew Point: 59°   Wind: 5mph
Humidity: 57%   Direction: 310°NW
Pressure: 30.12"   Gusts: NA
Location:  32.5005°N, 93.0738°W
Report Text: KMNE 211635Z AUTO 31004KT 10SM CLR 24/15 A3012 RMK AO2
Loading
Personal Weather Stations






























Interactive Weather Map
Tropical Storm Tracking
New forecast layout! Learn more

10-Day Weather Forecast

Advertisements
Track Severe Weather on mobile